sensor_id;sensor_type;location;lat;lon;timestamp;pressure;altitude;pressure_sealevel;temperature;humidity
61478;BME280;47345;52.334;10.392;2023-04-09T00:01:10;102007.98;;;5.74;92.60
61478;BME280;47345;52.334;10.392;2023-04-09T00:03:41;102008.61;;;5.75;92.70
61478;BME280;47345;52.334;10.392;2023-04-09T00:06:12;102007.29;;;5.74;92.64
61478;BME280;47345;52.334;10.392;2023-04-09T00:08:42;102007.00;;;5.71;92.55
61478;BME280;47345;52.334;10.392;2023-04-09T00:11:13;102005.59;;;5.70;92.86
61478;BME280;47345;52.334;10.392;2023-04-09T00:13:44;102000.40;;;5.68;92.73
61478;BME280;47345;52.334;10.392;2023-04-09T00:16:14;101999.38;;;5.69;92.84
61478;BME280;47345;52.334;10.392;2023-04-09T00:18:45;101994.42;;;5.70;93.16
61478;BME280;47345;52.334;10.392;2023-04-09T00:21:15;101992.39;;;5.70;93.10
61478;BME280;47345;52.334;10.392;2023-04-09T00:23:46;101992.30;;;5.71;93.28
61478;BME280;47345;52.334;10.392;2023-04-09T00:26:17;101991.16;;;5.74;93.62
61478;BME280;47345;52.334;10.392;2023-04-09T00:28:48;101989.70;;;5.74;93.37
61478;BME280;47345;52.334;10.392;2023-04-09T00:31:19;101991.28;;;5.73;93.26
61478;BME280;47345;52.334;10.392;2023-04-09T00:33:50;101989.31;;;5.72;93.21
61478;BME280;47345;52.334;10.392;2023-04-09T00:36:21;101988.59;;;5.72;93.27
61478;BME280;47345;52.334;10.392;2023-04-09T00:38:55;101990.97;;;5.66;92.79
61478;BME280;47345;52.334;10.392;2023-04-09T00:41:25;101989.02;;;5.59;92.62
61478;BME280;47345;52.334;10.392;2023-04-09T00:43:57;101992.54;;;5.57;92.75
61478;BME280;47345;52.334;10.392;2023-04-09T00:46:28;101992.20;;;5.55;92.77
61478;BME280;47345;52.334;10.392;2023-04-09T00:48:59;101992.91;;;5.51;92.66
61478;BME280;47345;52.334;10.392;2023-04-09T00:51:30;101995.63;;;5.53;93.50
61478;BME280;47345;52.334;10.392;2023-04-09T00:54:01;101999.45;;;5.57;93.88
61478;BME280;47345;52.334;10.392;2023-04-09T00:56:32;102000.65;;;5.53;93.07
61478;BME280;47345;52.334;10.392;2023-04-09T00:59:03;101998.74;;;5.47;92.64
61478;BME280;47345;52.334;10.392;2023-04-09T01:01:34;101998.70;;;5.41;92.50
61478;BME280;47345;52.334;10.392;2023-04-09T01:04:05;101995.53;;;5.36;92.35
61478;BME280;47345;52.334;10.392;2023-04-09T01:06:40;101995.55;;;5.30;92.34
61478;BME280;47345;52.334;10.392;2023-04-09T01:09:17;101993.93;;;5.30;93.03
61478;BME280;47345;52.334;10.392;2023-04-09T01:12:01;101996.84;;;5.34;93.63
61478;BME280;47345;52.334;10.392;2023-04-09T01:14:40;101994.80;;;5.35;93.25
61478;BME280;47345;52.334;10.392;2023-04-09T01:17:17;101996.54;;;5.33;93.08
61478;BME280;47345;52.334;10.392;2023-04-09T01:19:57;101994.80;;;5.28;92.66
61478;BME280;47345;52.334;10.392;2023-04-09T01:22:30;101989.30;;;5.23;92.46
61478;BME280;47345;52.334;10.392;2023-04-09T01:25:19;101988.51;;;5.22;93.00
61478;BME280;47345;52.334;10.392;2023-04-09T01:28:04;101983.00;;;5.25;93.54
61478;BME280;47345;52.334;10.392;2023-04-09T01:30:36;101981.45;;;5.26;93.64
61478;BME280;47345;52.334;10.392;2023-04-09T01:33:07;101979.91;;;5.29;93.80
61478;BME280;47345;52.334;10.392;2023-04-09T01:35:38;101979.34;;;5.31;94.04
61478;BME280;47345;52.334;10.392;2023-04-09T01:38:11;101979.05;;;5.32;93.71
61478;BME280;47345;52.334;10.392;2023-04-09T01:40:43;101973.17;;;5.29;93.30
61478;BME280;47345;52.334;10.392;2023-04-09T01:43:14;101977.08;;;5.30;93.45
61478;BME280;47345;52.334;10.392;2023-04-09T01:45:45;101976.66;;;5.29;93.31
61478;BME280;47345;52.334;10.392;2023-04-09T01:48:17;101977.89;;;5.27;93.13
61478;BME280;47345;52.334;10.392;2023-04-09T01:50:49;101975.80;;;5.25;92.97
61478;BME280;47345;52.334;10.392;2023-04-09T01:53:20;101978.40;;;5.24;93.01
61478;BME280;47345;52.334;10.392;2023-04-09T01:55:50;101981.08;;;5.24;93.35
61478;BME280;47345;52.334;10.392;2023-04-09T01:58:21;101978.89;;;5.24;93.80
61478;BME280;47345;52.334;10.392;2023-04-09T02:00:53;101981.08;;;5.26;93.76
61478;BME280;47345;52.334;10.392;2023-04-09T02:03:30;101982.27;;;5.25;93.66
61478;BME280;47345;52.334;10.392;2023-04-09T02:06:08;101983.14;;;5.23;93.39
61478;BME280;47345;52.334;10.392;2023-04-09T02:08:39;101983.96;;;5.18;92.88
61478;BME280;47345;52.334;10.392;2023-04-09T02:11:14;101986.02;;;5.16;93.31
61478;BME280;47345;52.334;10.392;2023-04-09T02:13:46;101985.77;;;5.14;93.54
61478;BME280;47345;52.334;10.392;2023-04-09T02:16:19;101984.38;;;5.14;93.53
61478;BME280;47345;52.334;10.392;2023-04-09T02:18:53;101979.65;;;5.14;93.71
61478;BME280;47345;52.334;10.392;2023-04-09T02:21:24;101981.52;;;5.13;93.42
61478;BME280;47345;52.334;10.392;2023-04-09T02:23:55;101981.96;;;5.08;93.03
61478;BME280;47345;52.334;10.392;2023-04-09T02:26:26;101985.64;;;5.06;92.82
61478;BME280;47345;52.334;10.392;2023-04-09T02:28:56;101986.94;;;4.99;92.22
61478;BME280;47345;52.334;10.392;2023-04-09T02:31:27;101989.38;;;4.95;92.53
61478;BME280;47345;52.334;10.392;2023-04-09T02:33:57;101980.91;;;4.90;92.64
61478;BME280;47345;52.334;10.392;2023-04-09T02:36:27;101987.39;;;4.86;92.58
61478;BME280;47345;52.334;10.392;2023-04-09T02:38:59;101985.85;;;4.79;92.13
61478;BME280;47345;52.334;10.392;2023-04-09T02:41:29;101984.39;;;4.71;92.28
61478;BME280;47345;52.334;10.392;2023-04-09T02:44:00;101984.48;;;4.64;92.14
61478;BME280;47345;52.334;10.392;2023-04-09T02:46:31;101985.85;;;4.57;92.31
61478;BME280;47345;52.334;10.392;2023-04-09T02:49:01;101983.91;;;4.50;92.46
61478;BME280;47345;52.334;10.392;2023-04-09T02:51:32;101983.81;;;4.49;93.05
61478;BME280;47345;52.334;10.392;2023-04-09T02:54:03;101981.86;;;4.51;93.33
61478;BME280;47345;52.334;10.392;2023-04-09T02:56:33;101977.84;;;4.50;93.01
61478;BME280;47345;52.334;10.392;2023-04-09T02:59:04;101975.59;;;4.46;92.99
61478;BME280;47345;52.334;10.392;2023-04-09T03:01:34;101975.60;;;4.42;92.94
61478;BME280;47345;52.334;10.392;2023-04-09T03:04:05;101974.20;;;4.39;93.28
61478;BME280;47345;52.334;10.392;2023-04-09T03:06:36;101970.49;;;4.40;93.49
61478;BME280;47345;52.334;10.392;2023-04-09T03:09:07;101969.65;;;4.38;93.10
61478;BME280;47345;52.334;10.392;2023-04-09T03:11:37;101969.79;;;4.36;93.42
61478;BME280;47345;52.334;10.392;2023-04-09T03:14:08;101965.10;;;4.34;93.34
61478;BME280;47345;52.334;10.392;2023-04-09T03:16:39;101964.19;;;4.32;93.51
61478;BME280;47345;52.334;10.392;2023-04-09T03:19:10;101963.27;;;4.32;94.16
61478;BME280;47345;52.334;10.392;2023-04-09T03:21:41;101961.54;;;4.36;94.28
61478;BME280;47345;52.334;10.392;2023-04-09T03:24:12;101962.80;;;4.36;94.10
61478;BME280;47345;52.334;10.392;2023-04-09T03:26:42;101964.20;;;4.38;94.52
61478;BME280;47345;52.334;10.392;2023-04-09T03:29:12;101962.36;;;4.40;94.54
61478;BME280;47345;52.334;10.392;2023-04-09T03:31:43;101966.08;;;4.41;94.23
61478;BME280;47345;52.334;10.392;2023-04-09T03:34:14;101969.22;;;4.36;94.00
61478;BME280;47345;52.334;10.392;2023-04-09T03:36:45;101967.37;;;4.33;94.30
61478;BME280;47345;52.334;10.392;2023-04-09T03:39:15;101969.61;;;4.34;94.52
61478;BME280;47345;52.334;10.392;2023-04-09T03:41:46;101970.47;;;4.31;94.33
61478;BME280;47345;52.334;10.392;2023-04-09T03:44:17;101973.14;;;4.25;94.23
61478;BME280;47345;52.334;10.392;2023-04-09T03:46:47;101969.66;;;4.19;94.39
61478;BME280;47345;52.334;10.392;2023-04-09T03:49:18;101968.21;;;4.15;94.52
61478;BME280;47345;52.334;10.392;2023-04-09T03:51:49;101969.13;;;4.13;94.78
61478;BME280;47345;52.334;10.392;2023-04-09T03:54:20;101970.17;;;4.13;94.88
61478;BME280;47345;52.334;10.392;2023-04-09T03:56:51;101971.11;;;4.12;94.72
61478;BME280;47345;52.334;10.392;2023-04-09T03:59:21;101971.21;;;4.09;94.67
61478;BME280;47345;52.334;10.392;2023-04-09T04:01:52;101968.46;;;4.06;94.46
61478;BME280;47345;52.334;10.392;2023-04-09T04:04:23;101967.72;;;4.02;94.57
61478;BME280;47345;52.334;10.392;2023-04-09T04:06:54;101969.91;;;3.99;95.07
61478;BME280;47345;52.334;10.392;2023-04-09T04:09:24;101971.57;;;3.97;95.09
61478;BME280;47345;52.334;10.392;2023-04-09T04:11:55;101969.95;;;3.99;95.63
61478;BME280;47345;52.334;10.392;2023-04-09T04:14:27;101973.83;;;4.00;95.50
61478;BME280;47345;52.334;10.392;2023-04-09T04:16:57;101974.81;;;4.01;95.63
61478;BME280;47345;52.334;10.392;2023-04-09T04:19:28;101973.96;;;4.03;95.62
61478;BME280;47345;52.334;10.392;2023-04-09T04:21:58;101973.06;;;4.05;95.73
61478;BME280;47345;52.334;10.392;2023-04-09T04:24:29;101973.55;;;4.07;95.88
61478;BME280;47345;52.334;10.392;2023-04-09T04:27:00;101971.40;;;4.13;96.02
61478;BME280;47345;52.334;10.392;2023-04-09T04:29:30;101977.36;;;4.18;95.96
61478;BME280;47345;52.334;10.392;2023-04-09T04:32:00;101977.04;;;4.21;96.03
61478;BME280;47345;52.334;10.392;2023-04-09T04:34:31;101978.55;;;4.23;95.77
61478;BME280;47345;52.334;10.392;2023-04-09T04:37:02;101983.23;;;4.23;95.68
61478;BME280;47345;52.334;10.392;2023-04-09T04:39:33;101985.56;;;4.23;95.27
61478;BME280;47345;52.334;10.392;2023-04-09T04:42:04;101986.85;;;4.25;95.80
61478;BME280;47345;52.334;10.392;2023-04-09T04:44:34;101989.27;;;4.28;95.58
61478;BME280;47345;52.334;10.392;2023-04-09T04:47:05;101988.39;;;4.32;95.67
61478;BME280;47345;52.334;10.392;2023-04-09T04:49:36;101986.31;;;4.33;95.49
61478;BME280;47345;52.334;10.392;2023-04-09T04:52:07;101982.92;;;4.33;95.09
61478;BME280;47345;52.334;10.392;2023-04-09T04:54:38;101988.88;;;4.33;94.97
61478;BME280;47345;52.334;10.392;2023-04-09T04:57:08;101985.37;;;4.31;95.15
61478;BME280;47345;52.334;10.392;2023-04-09T04:59:39;101988.09;;;4.32;94.99
61478;BME280;47345;52.334;10.392;2023-04-09T05:02:09;101987.52;;;4.32;95.07
61478;BME280;47345;52.334;10.392;2023-04-09T05:04:40;101986.42;;;4.32;95.23
61478;BME280;47345;52.334;10.392;2023-04-09T05:07:10;101987.95;;;4.33;95.33
61478;BME280;47345;52.334;10.392;2023-04-09T05:09:41;101984.88;;;4.37;95.65
61478;BME280;47345;52.334;10.392;2023-04-09T05:12:12;101985.38;;;4.41;95.70
61478;BME280;47345;52.334;10.392;2023-04-09T05:14:43;101983.16;;;4.44;95.55
61478;BME280;47345;52.334;10.392;2023-04-09T05:17:14;101983.59;;;4.48;95.65
61478;BME280;47345;52.334;10.392;2023-04-09T05:19:44;101982.87;;;4.52;95.71
61478;BME280;47345;52.334;10.392;2023-04-09T05:22:19;101985.51;;;4.58;95.74
61478;BME280;47345;52.334;10.392;2023-04-09T05:24:50;101986.40;;;4.65;95.90
61478;BME280;47345;52.334;10.392;2023-04-09T05:27:20;101983.27;;;4.72;96.02
61478;BME280;47345;52.334;10.392;2023-04-09T05:29:54;101986.08;;;4.79;96.02
61478;BME280;47345;52.334;10.392;2023-04-09T05:32:27;101985.75;;;4.86;95.89
61478;BME280;47345;52.334;10.392;2023-04-09T05:34:58;101987.29;;;4.94;95.98
61478;BME280;47345;52.334;10.392;2023-04-09T05:37:28;101986.46;;;5.00;95.93
61478;BME280;47345;52.334;10.392;2023-04-09T05:39:58;101985.63;;;5.08;95.99
61478;BME280;47345;52.334;10.392;2023-04-09T05:42:29;101988.50;;;5.14;96.01
61478;BME280;47345;52.334;10.392;2023-04-09T05:45:00;101987.86;;;5.21;95.99
61478;BME280;47345;52.334;10.392;2023-04-09T05:47:30;101990.45;;;5.28;95.96
61478;BME280;47345;52.334;10.392;2023-04-09T05:50:01;101992.25;;;5.35;95.86
61478;BME280;47345;52.334;10.392;2023-04-09T05:52:32;101995.34;;;5.40;95.76
61478;BME280;47345;52.334;10.392;2023-04-09T05:55:04;101991.60;;;5.45;95.65
61478;BME280;47345;52.334;10.392;2023-04-09T05:57:34;101994.45;;;5.52;95.66
61478;BME280;47345;52.334;10.392;2023-04-09T06:00:07;101994.94;;;5.56;95.54
61478;BME280;47345;52.334;10.392;2023-04-09T06:02:38;101994.77;;;5.62;95.57
61478;BME280;47345;52.334;10.392;2023-04-09T06:05:09;101996.80;;;5.66;95.30
61478;BME280;47345;52.334;10.392;2023-04-09T06:07:40;101998.23;;;5.70;95.24
61478;BME280;47345;52.334;10.392;2023-04-09T06:10:11;101996.94;;;5.74;95.27
61478;BME280;47345;52.334;10.392;2023-04-09T06:12:41;101998.16;;;5.78;95.22
61478;BME280;47345;52.334;10.392;2023-04-09T06:15:13;101999.05;;;5.84;95.25
61478;BME280;47345;52.334;10.392;2023-04-09T06:17:44;102001.13;;;5.89;95.19
61478;BME280;47345;52.334;10.392;2023-04-09T06:20:14;102000.18;;;5.94;95.11
61478;BME280;47345;52.334;10.392;2023-04-09T06:22:45;102000.33;;;5.98;95.12
61478;BME280;47345;52.334;10.392;2023-04-09T06:25:16;102002.17;;;6.01;94.82
61478;BME280;47345;52.334;10.392;2023-04-09T06:27:47;102005.92;;;6.04;94.55
61478;BME280;47345;52.334;10.392;2023-04-09T06:30:17;102013.78;;;6.07;94.55
61478;BME280;47345;52.334;10.392;2023-04-09T06:32:49;102016.57;;;6.10;94.54
61478;BME280;47345;52.334;10.392;2023-04-09T06:35:23;102020.70;;;6.11;94.20
61478;BME280;47345;52.334;10.392;2023-04-09T06:37:55;102022.27;;;6.13;94.23
61478;BME280;47345;52.334;10.392;2023-04-09T06:40:25;102021.67;;;6.17;94.29
61478;BME280;47345;52.334;10.392;2023-04-09T06:42:56;102021.20;;;6.23;94.27
61478;BME280;47345;52.334;10.392;2023-04-09T06:45:27;102020.54;;;6.28;94.25
61478;BME280;47345;52.334;10.392;2023-04-09T06:47:57;102017.33;;;6.33;94.42
61478;BME280;47345;52.334;10.392;2023-04-09T06:50:28;102018.08;;;6.36;94.16
61478;BME280;47345;52.334;10.392;2023-04-09T06:52:59;102019.04;;;6.38;94.05
61478;BME280;47345;52.334;10.392;2023-04-09T06:55:29;102018.23;;;6.40;94.09
61478;BME280;47345;52.334;10.392;2023-04-09T06:58:00;102018.79;;;6.42;93.93
61478;BME280;47345;52.334;10.392;2023-04-09T07:00:31;102021.29;;;6.41;93.48
61478;BME280;47345;52.334;10.392;2023-04-09T07:03:03;102020.00;;;6.41;93.64
61478;BME280;47345;52.334;10.392;2023-04-09T07:05:34;102019.71;;;6.42;93.81
61478;BME280;47345;52.334;10.392;2023-04-09T07:08:05;102025.05;;;6.45;93.92
61478;BME280;47345;52.334;10.392;2023-04-09T07:10:36;102025.64;;;6.46;93.90
61478;BME280;47345;52.334;10.392;2023-04-09T07:13:07;102023.52;;;6.47;93.97
61478;BME280;47345;52.334;10.392;2023-04-09T07:15:38;102022.71;;;6.53;94.05
61478;BME280;47345;52.334;10.392;2023-04-09T07:18:10;102023.83;;;6.54;93.96
61478;BME280;47345;52.334;10.392;2023-04-09T07:20:41;102023.10;;;6.54;93.77
61478;BME280;47345;52.334;10.392;2023-04-09T07:23:11;102022.11;;;6.56;93.91
61478;BME280;47345;52.334;10.392;2023-04-09T07:25:42;102027.80;;;6.59;93.84
61478;BME280;47345;52.334;10.392;2023-04-09T07:28:12;102027.21;;;6.64;93.85
61478;BME280;47345;52.334;10.392;2023-04-09T07:30:43;102027.78;;;6.65;93.62
61478;BME280;47345;52.334;10.392;2023-04-09T07:33:14;102031.81;;;6.67;93.37
61478;BME280;47345;52.334;10.392;2023-04-09T07:35:45;102020.85;;;6.72;93.50
61478;BME280;47345;52.334;10.392;2023-04-09T07:38:15;102022.08;;;6.77;93.59
61478;BME280;47345;52.334;10.392;2023-04-09T07:40:46;102022.21;;;6.80;92.94
61478;BME280;47345;52.334;10.392;2023-04-09T07:43:16;102021.93;;;6.79;92.58
61478;BME280;47345;52.334;10.392;2023-04-09T07:45:50;102023.27;;;6.82;92.82
61478;BME280;47345;52.334;10.392;2023-04-09T07:48:21;102026.92;;;6.86;92.75
61478;BME280;47345;52.334;10.392;2023-04-09T07:50:51;102029.65;;;6.87;92.45
61478;BME280;47345;52.334;10.392;2023-04-09T07:53:22;102026.73;;;6.88;92.14
61478;BME280;47345;52.334;10.392;2023-04-09T07:55:53;102027.27;;;6.91;92.37
61478;BME280;47345;52.334;10.392;2023-04-09T07:58:24;102026.49;;;6.93;92.27
61478;BME280;47345;52.334;10.392;2023-04-09T08:00:54;102026.02;;;6.97;92.07
61478;BME280;47345;52.334;10.392;2023-04-09T08:03:25;102023.75;;;7.03;92.50
61478;BME280;47345;52.334;10.392;2023-04-09T08:05:56;102027.87;;;7.13;92.70
61478;BME280;47345;52.334;10.392;2023-04-09T08:08:27;102031.88;;;7.16;91.38
61478;BME280;47345;52.334;10.392;2023-04-09T08:10:58;102032.40;;;7.17;91.17
61478;BME280;47345;52.334;10.392;2023-04-09T08:13:28;102030.95;;;7.17;90.80
61478;BME280;47345;52.334;10.392;2023-04-09T08:16:00;102028.86;;;7.21;91.22
61478;BME280;47345;52.334;10.392;2023-04-09T08:18:32;102034.61;;;7.28;91.21
61478;BME280;47345;52.334;10.392;2023-04-09T08:21:06;102032.88;;;7.31;90.74
61478;BME280;47345;52.334;10.392;2023-04-09T08:23:37;102035.15;;;7.31;90.35
61478;BME280;47345;52.334;10.392;2023-04-09T08:26:07;102032.98;;;7.33;90.62
61478;BME280;47345;52.334;10.392;2023-04-09T08:28:37;102031.00;;;7.32;90.56
61478;BME280;47345;52.334;10.392;2023-04-09T08:31:09;102033.68;;;7.37;90.31
61478;BME280;47345;52.334;10.392;2023-04-09T08:33:39;102030.60;;;7.38;90.29
61478;BME280;47345;52.334;10.392;2023-04-09T08:36:11;102031.79;;;7.43;90.26
61478;BME280;47345;52.334;10.392;2023-04-09T08:38:41;102026.59;;;7.44;90.22
61478;BME280;47345;52.334;10.392;2023-04-09T08:41:19;102029.58;;;7.47;89.80
61478;BME280;47345;52.334;10.392;2023-04-09T08:43:49;102031.73;;;7.44;89.26
61478;BME280;47345;52.334;10.392;2023-04-09T08:46:27;102028.86;;;7.43;89.75
61478;BME280;47345;52.334;10.392;2023-04-09T08:48:58;102033.98;;;7.47;89.52
61478;BME280;47345;52.334;10.392;2023-04-09T08:51:29;102033.48;;;7.49;89.65
61478;BME280;47345;52.334;10.392;2023-04-09T08:54:01;102035.14;;;7.51;89.40
61478;BME280;47345;52.334;10.392;2023-04-09T08:56:33;102043.13;;;7.55;89.32
61478;BME280;47345;52.334;10.392;2023-04-09T08:59:04;102039.33;;;7.58;89.38
61478;BME280;47345;52.334;10.392;2023-04-09T09:01:34;102037.24;;;7.61;89.08
61478;BME280;47345;52.334;10.392;2023-04-09T09:04:06;102037.70;;;7.64;88.84
61478;BME280;47345;52.334;10.392;2023-04-09T09:06:39;102037.98;;;7.63;88.45
61478;BME280;47345;52.334;10.392;2023-04-09T09:09:11;102037.30;;;7.64;88.72
61478;BME280;47345;52.334;10.392;2023-04-09T09:11:44;102038.90;;;7.68;88.97
61478;BME280;47345;52.334;10.392;2023-04-09T09:14:16;102033.59;;;7.74;88.64
61478;BME280;47345;52.334;10.392;2023-04-09T09:17:04;102032.96;;;7.77;87.92
61478;BME280;47345;52.334;10.392;2023-04-09T09:19:36;102031.67;;;7.77;87.50
61478;BME280;47345;52.334;10.392;2023-04-09T09:22:07;102028.48;;;7.78;87.58
61478;BME280;47345;52.334;10.392;2023-04-09T09:24:47;102027.02;;;7.83;87.59
61478;BME280;47345;52.334;10.392;2023-04-09T09:27:36;102026.39;;;7.89;87.34
61478;BME280;47345;52.334;10.392;2023-04-09T09:30:09;102028.44;;;7.96;87.07
61478;BME280;47345;52.334;10.392;2023-04-09T09:32:52;102024.38;;;8.04;86.89
61478;BME280;47345;52.334;10.392;2023-04-09T09:35:23;102024.52;;;8.09;86.41
61478;BME280;47345;52.334;10.392;2023-04-09T09:38:04;102024.72;;;8.14;86.32
61478;BME280;47345;52.334;10.392;2023-04-09T09:40:34;102030.11;;;8.22;85.95
61478;BME280;47345;52.334;10.392;2023-04-09T09:43:04;102026.67;;;8.25;85.44
61478;BME280;47345;52.334;10.392;2023-04-09T09:45:36;102025.14;;;8.30;85.30
61478;BME280;47345;52.334;10.392;2023-04-09T09:48:08;102025.92;;;8.35;85.42
61478;BME280;47345;52.334;10.392;2023-04-09T09:50:41;102024.53;;;8.41;85.09
61478;BME280;47345;52.334;10.392;2023-04-09T09:53:11;102021.11;;;8.44;84.65
61478;BME280;47345;52.334;10.392;2023-04-09T09:55:46;102021.61;;;8.52;85.05
61478;BME280;47345;52.334;10.392;2023-04-09T09:58:23;102021.39;;;8.63;85.17
61478;BME280;47345;52.334;10.392;2023-04-09T10:00:56;102022.95;;;8.74;85.21
61478;BME280;47345;52.334;10.392;2023-04-09T10:03:28;102018.89;;;8.83;85.01
61478;BME280;47345;52.334;10.392;2023-04-09T10:06:01;102019.65;;;8.91;84.70
61478;BME280;47345;52.334;10.392;2023-04-09T10:08:33;102020.77;;;8.98;84.24
61478;BME280;47345;52.334;10.392;2023-04-09T10:11:06;102021.54;;;9.02;83.74
61478;BME280;47345;52.334;10.392;2023-04-09T10:13:39;102019.02;;;9.08;83.77
61478;BME280;47345;52.334;10.392;2023-04-09T10:16:11;102018.29;;;9.16;83.71
61478;BME280;47345;52.334;10.392;2023-04-09T10:18:43;102020.08;;;9.25;83.43
61478;BME280;47345;52.334;10.392;2023-04-09T10:21:19;102019.52;;;9.33;83.19
61478;BME280;47345;52.334;10.392;2023-04-09T10:23:54;102016.25;;;9.40;82.59
61478;BME280;47345;52.334;10.392;2023-04-09T10:26:26;102013.80;;;9.52;82.84
61478;BME280;47345;52.334;10.392;2023-04-09T10:29:09;102010.87;;;9.64;82.80
61478;BME280;47345;52.334;10.392;2023-04-09T10:32:05;102006.41;;;9.70;82.08
61478;BME280;47345;52.334;10.392;2023-04-09T10:34:39;102001.97;;;9.75;81.55
61478;BME280;47345;52.334;10.392;2023-04-09T10:37:12;102003.74;;;9.84;81.16
61478;BME280;47345;52.334;10.392;2023-04-09T10:39:46;101996.70;;;9.97;81.11
61478;BME280;47345;52.334;10.392;2023-04-09T10:42:20;101990.26;;;10.09;80.83
61478;BME280;47345;52.334;10.392;2023-04-09T10:45:07;101981.17;;;10.18;79.71
61478;BME280;47345;52.334;10.392;2023-04-09T10:47:40;101978.45;;;10.25;78.22
61478;BME280;47345;52.334;10.392;2023-04-09T10:50:23;101978.59;;;10.25;77.16
61478;BME280;47345;52.334;10.392;2023-04-09T10:52:55;101975.30;;;10.26;77.19
61478;BME280;47345;52.334;10.392;2023-04-09T10:55:35;101977.19;;;10.28;76.96
61478;BME280;47345;52.334;10.392;2023-04-09T10:58:07;101974.39;;;10.25;76.44
61478;BME280;47345;52.334;10.392;2023-04-09T11:00:43;101972.38;;;10.24;76.02
61478;BME280;47345;52.334;10.392;2023-04-09T11:03:27;101973.27;;;10.19;75.27
61478;BME280;47345;52.334;10.392;2023-04-09T11:06:03;101969.76;;;10.19;75.80
61478;BME280;47345;52.334;10.392;2023-04-09T11:08:34;101966.67;;;10.22;75.81
61478;BME280;47345;52.334;10.392;2023-04-09T11:11:06;101968.50;;;10.30;76.11
61478;BME280;47345;52.334;10.392;2023-04-09T11:13:36;101970.21;;;10.37;74.77
61478;BME280;47345;52.334;10.392;2023-04-09T11:16:07;101961.91;;;10.36;74.26
61478;BME280;47345;52.334;10.392;2023-04-09T11:18:38;101960.66;;;10.40;75.14
61478;BME280;47345;52.334;10.392;2023-04-09T11:21:09;101960.27;;;10.45;73.90
61478;BME280;47345;52.334;10.392;2023-04-09T11:23:42;101962.22;;;10.46;73.02
61478;BME280;47345;52.334;10.392;2023-04-09T11:26:24;101957.29;;;10.49;73.42
61478;BME280;47345;52.334;10.392;2023-04-09T11:28:57;101953.86;;;10.52;73.18
61478;BME280;47345;52.334;10.392;2023-04-09T11:31:34;101952.50;;;10.58;73.10
61478;BME280;47345;52.334;10.392;2023-04-09T11:34:04;101953.64;;;10.67;73.45
61478;BME280;47345;52.334;10.392;2023-04-09T11:36:36;101955.63;;;10.75;72.23
61478;BME280;47345;52.334;10.392;2023-04-09T11:39:06;101949.08;;;10.80;71.84
61478;BME280;47345;52.334;10.392;2023-04-09T11:41:37;101950.44;;;10.86;72.10
61478;BME280;47345;52.334;10.392;2023-04-09T11:44:08;101948.23;;;10.96;72.29
61478;BME280;47345;52.334;10.392;2023-04-09T11:46:39;101945.27;;;11.08;71.99
61478;BME280;47345;52.334;10.392;2023-04-09T11:49:10;101944.21;;;11.21;70.92
61478;BME280;47345;52.334;10.392;2023-04-09T11:51:41;101941.67;;;11.33;70.42
61478;BME280;47345;52.334;10.392;2023-04-09T11:54:12;101947.33;;;11.46;69.97
61478;BME280;47345;52.334;10.392;2023-04-09T11:56:43;101944.30;;;11.56;68.79
61478;BME280;47345;52.334;10.392;2023-04-09T11:59:15;101943.93;;;11.64;67.64
61478;BME280;47345;52.334;10.392;2023-04-09T12:01:50;101940.09;;;11.70;67.60
61478;BME280;47345;52.334;10.392;2023-04-09T12:04:21;101937.30;;;11.73;67.09
61478;BME280;47345;52.334;10.392;2023-04-09T12:06:56;101934.60;;;11.75;67.79
61478;BME280;47345;52.334;10.392;2023-04-09T12:09:28;101936.23;;;11.76;67.38
61478;BME280;47345;52.334;10.392;2023-04-09T12:11:59;101932.48;;;11.78;67.82
61478;BME280;47345;52.334;10.392;2023-04-09T12:14:30;101935.23;;;11.85;67.62
61478;BME280;47345;52.334;10.392;2023-04-09T12:17:01;101934.77;;;11.87;66.29
61478;BME280;47345;52.334;10.392;2023-04-09T12:19:35;101929.36;;;11.89;65.91
61478;BME280;47345;52.334;10.392;2023-04-09T12:22:05;101926.95;;;11.92;65.67
61478;BME280;47345;52.334;10.392;2023-04-09T12:24:35;101930.81;;;12.00;65.88
61478;BME280;47345;52.334;10.392;2023-04-09T12:27:06;101929.98;;;12.08;66.38
61478;BME280;47345;52.334;10.392;2023-04-09T12:29:36;101920.59;;;12.20;65.59
61478;BME280;47345;52.334;10.392;2023-04-09T12:32:06;101925.13;;;12.31;65.43
61478;BME280;47345;52.334;10.392;2023-04-09T12:34:37;101918.99;;;12.39;65.52
61478;BME280;47345;52.334;10.392;2023-04-09T12:37:08;101914.52;;;12.45;64.72
61478;BME280;47345;52.334;10.392;2023-04-09T12:39:38;101914.33;;;12.50;64.30
61478;BME280;47345;52.334;10.392;2023-04-09T12:42:09;101914.40;;;12.52;64.19
61478;BME280;47345;52.334;10.392;2023-04-09T12:44:40;101912.00;;;12.52;64.50
61478;BME280;47345;52.334;10.392;2023-04-09T12:47:11;101911.54;;;12.53;64.31
61478;BME280;47345;52.334;10.392;2023-04-09T12:49:43;101909.30;;;12.53;64.54
61478;BME280;47345;52.334;10.392;2023-04-09T12:52:15;101908.96;;;12.53;64.37
61478;BME280;47345;52.334;10.392;2023-04-09T12:54:47;101906.66;;;12.51;63.33
61478;BME280;47345;52.334;10.392;2023-04-09T12:57:17;101901.98;;;12.49;63.39
61478;BME280;47345;52.334;10.392;2023-04-09T12:59:48;101898.92;;;12.50;63.41
61478;BME280;47345;52.334;10.392;2023-04-09T13:02:19;101901.08;;;12.53;63.63
61478;BME280;47345;52.334;10.392;2023-04-09T13:04:51;101900.95;;;12.57;63.61
61478;BME280;47345;52.334;10.392;2023-04-09T13:07:22;101896.98;;;12.60;63.81
61478;BME280;47345;52.334;10.392;2023-04-09T13:09:54;101900.68;;;12.62;63.44
61478;BME280;47345;52.334;10.392;2023-04-09T13:12:24;101901.86;;;12.63;63.17